sensor_id;sensor_type;location;lat;lon;timestamp;P1;durP1;ratioP1;P2;durP2;ratioP2
56457;SDS011;42360;42.918;12.366;2022-09-29T00:01:27;4.70;;;2.20;;
56457;SDS011;42360;42.918;12.366;2022-09-29T00:03:52;5.07;;;1.73;;
56457;SDS011;42360;42.918;12.366;2022-09-29T00:06:18;4.40;;;1.33;;
56457;SDS011;42360;42.918;12.366;2022-09-29T00:08:44;3.35;;;1.45;;
56457;SDS011;42360;42.918;12.366;2022-09-29T00:11:11;2.22;;;1.50;;
56457;SDS011;42360;42.918;12.366;2022-09-29T00:13:38;8.82;;;1.50;;
56457;SDS011;42360;42.918;12.366;2022-09-29T00:16:04;4.45;;;1.50;;
56457;SDS011;42360;42.918;12.366;2022-09-29T00:18:30;4.72;;;1.30;;
56457;SDS011;42360;42.918;12.366;2022-09-29T00:20:57;7.90;;;1.40;;
56457;SDS011;42360;42.918;12.366;2022-09-29T00:23:28;3.22;;;1.77;;
56457;SDS011;42360;42.918;12.366;2022-09-29T00:25:59;4.95;;;1.30;;
56457;SDS011;42360;42.918;12.366;2022-09-29T00:28:26;3.38;;;1.30;;
56457;SDS011;42360;42.918;12.366;2022-09-29T00:30:51;3.83;;;1.75;;
56457;SDS011;42360;42.918;12.366;2022-09-29T00:33:17;5.47;;;1.08;;
56457;SDS011;42360;42.918;12.366;2022-09-29T00:35:43;4.18;;;1.98;;
56457;SDS011;42360;42.918;12.366;2022-09-29T00:38:08;4.60;;;2.00;;
56457;SDS011;42360;42.918;12.366;2022-09-29T00:40:34;3.75;;;1.50;;
56457;SDS011;42360;42.918;12.366;2022-09-29T00:42:59;5.80;;;1.20;;
56457;SDS011;42360;42.918;12.366;2022-09-29T00:45:25;6.80;;;1.90;;
56457;SDS011;42360;42.918;12.366;2022-09-29T00:48:08;3.55;;;1.58;;
56457;SDS011;42360;42.918;12.366;2022-09-29T00:50:41;5.97;;;1.45;;
56457;SDS011;42360;42.918;12.366;2022-09-29T00:53:09;5.10;;;1.58;;
56457;SDS011;42360;42.918;12.366;2022-09-29T00:55:37;11.40;;;2.17;;
56457;SDS011;42360;42.918;12.366;2022-09-29T00:58:27;6.10;;;1.92;;
56457;SDS011;42360;42.918;12.366;2022-09-29T01:01:00;2.28;;;1.63;;
56457;SDS011;42360;42.918;12.366;2022-09-29T01:03:28;4.55;;;1.60;;
56457;SDS011;42360;42.918;12.366;2022-09-29T01:05:57;4.15;;;1.27;;
56457;SDS011;42360;42.918;12.366;2022-09-29T01:10:50;4.82;;;1.90;;
56457;SDS011;42360;42.918;12.366;2022-09-29T01:13:17;5.55;;;1.25;;
56457;SDS011;42360;42.918;12.366;2022-09-29T01:15:43;6.22;;;1.50;;
56457;SDS011;42360;42.918;12.366;2022-09-29T01:18:09;6.47;;;1.90;;
56457;SDS011;42360;42.918;12.366;2022-09-29T01:20:38;6.78;;;1.60;;
56457;SDS011;42360;42.918;12.366;2022-09-29T01:31:37;3.00;;;0.93;;
56457;SDS011;42360;42.918;12.366;2022-09-29T01:37:06;3.55;;;1.15;;
56457;SDS011;42360;42.918;12.366;2022-09-29T01:45:34;3.88;;;1.45;;
56457;SDS011;42360;42.918;12.366;2022-09-29T01:48:10;5.22;;;1.60;;
56457;SDS011;42360;42.918;12.366;2022-09-29T01:50:44;3.97;;;1.40;;
56457;SDS011;42360;42.918;12.366;2022-09-29T01:53:16;3.88;;;1.67;;
56457;SDS011;42360;42.918;12.366;2022-09-29T01:55:49;7.20;;;1.60;;
56457;SDS011;42360;42.918;12.366;2022-09-29T01:58:22;4.00;;;1.35;;
56457;SDS011;42360;42.918;12.366;2022-09-29T02:00:53;5.82;;;1.90;;
56457;SDS011;42360;42.918;12.366;2022-09-29T02:03:36;4.43;;;1.23;;
56457;SDS011;42360;42.918;12.366;2022-09-29T02:06:16;2.85;;;1.48;;
56457;SDS011;42360;42.918;12.366;2022-09-29T02:08:47;5.30;;;1.17;;
56457;SDS011;42360;42.918;12.366;2022-09-29T02:11:16;4.82;;;2.13;;
56457;SDS011;42360;42.918;12.366;2022-09-29T02:13:49;4.72;;;1.15;;
56457;SDS011;42360;42.918;12.366;2022-09-29T02:16:25;5.90;;;1.40;;
56457;SDS011;42360;42.918;12.366;2022-09-29T02:18:54;5.43;;;1.80;;
56457;SDS011;42360;42.918;12.366;2022-09-29T02:21:21;4.88;;;1.73;;
56457;SDS011;42360;42.918;12.366;2022-09-29T02:23:47;5.97;;;1.55;;
56457;SDS011;42360;42.918;12.366;2022-09-29T02:26:14;4.70;;;1.50;;
56457;SDS011;42360;42.918;12.366;2022-09-29T02:28:40;5.63;;;1.95;;
56457;SDS011;42360;42.918;12.366;2022-09-29T02:31:07;2.20;;;0.90;;
56457;SDS011;42360;42.918;12.366;2022-09-29T02:33:33;4.25;;;1.00;;
56457;SDS011;42360;42.918;12.366;2022-09-29T02:38:41;2.47;;;1.13;;
56457;SDS011;42360;42.918;12.366;2022-09-29T02:55:08;3.72;;;1.00;;
56457;SDS011;42360;42.918;12.366;2022-09-29T03:00:09;8.27;;;2.13;;
56457;SDS011;42360;42.918;12.366;2022-09-29T03:02:38;2.45;;;1.30;;
56457;SDS011;42360;42.918;12.366;2022-09-29T03:05:05;1.50;;;0.80;;
56457;SDS011;42360;42.918;12.366;2022-09-29T03:07:35;4.50;;;1.10;;
56457;SDS011;42360;42.918;12.366;2022-09-29T03:10:02;4.20;;;1.30;;
56457;SDS011;42360;42.918;12.366;2022-09-29T03:12:29;8.82;;;1.85;;
56457;SDS011;42360;42.918;12.366;2022-09-29T03:14:55;5.13;;;1.35;;
56457;SDS011;42360;42.918;12.366;2022-09-29T03:17:20;3.80;;;1.20;;
56457;SDS011;42360;42.918;12.366;2022-09-29T03:19:46;3.85;;;1.77;;
56457;SDS011;42360;42.918;12.366;2022-09-29T03:22:11;13.80;;;1.20;;
56457;SDS011;42360;42.918;12.366;2022-09-29T03:24:38;8.32;;;1.38;;
56457;SDS011;42360;42.918;12.366;2022-09-29T03:27:04;4.25;;;0.68;;
56457;SDS011;42360;42.918;12.366;2022-09-29T03:29:30;1.58;;;0.60;;
56457;SDS011;42360;42.918;12.366;2022-09-29T03:31:57;2.40;;;1.05;;
56457;SDS011;42360;42.918;12.366;2022-09-29T03:34:23;1.33;;;0.73;;
56457;SDS011;42360;42.918;12.366;2022-09-29T03:36:49;2.45;;;1.33;;
56457;SDS011;42360;42.918;12.366;2022-09-29T03:39:14;3.70;;;1.00;;
56457;SDS011;42360;42.918;12.366;2022-09-29T03:41:40;4.93;;;1.52;;
56457;SDS011;42360;42.918;12.366;2022-09-29T03:44:06;0.77;;;0.50;;
56457;SDS011;42360;42.918;12.366;2022-09-29T03:46:31;12.52;;;1.13;;
56457;SDS011;42360;42.918;12.366;2022-09-29T03:48:57;3.10;;;0.90;;
56457;SDS011;42360;42.918;12.366;2022-09-29T03:51:22;2.42;;;0.90;;
56457;SDS011;42360;42.918;12.366;2022-09-29T03:53:48;10.18;;;0.90;;
56457;SDS011;42360;42.918;12.366;2022-09-29T03:56:14;6.45;;;0.88;;
56457;SDS011;42360;42.918;12.366;2022-09-29T03:58:39;1.77;;;0.63;;
56457;SDS011;42360;42.918;12.366;2022-09-29T04:01:05;1.75;;;0.80;;
56457;SDS011;42360;42.918;12.366;2022-09-29T04:03:33;6.10;;;1.63;;
56457;SDS011;42360;42.918;12.366;2022-09-29T04:05:58;1.38;;;1.25;;
56457;SDS011;42360;42.918;12.366;2022-09-29T04:08:24;0.50;;;0.50;;
56457;SDS011;42360;42.918;12.366;2022-09-29T04:10:50;1.27;;;1.08;;
56457;SDS011;42360;42.918;12.366;2022-09-29T04:13:15;8.85;;;1.35;;
56457;SDS011;42360;42.918;12.366;2022-09-29T04:15:41;2.28;;;1.13;;
56457;SDS011;42360;42.918;12.366;2022-09-29T04:18:07;5.13;;;0.85;;
56457;SDS011;42360;42.918;12.366;2022-09-29T04:20:32;1.92;;;1.45;;
56457;SDS011;42360;42.918;12.366;2022-09-29T04:22:58;1.00;;;0.70;;
56457;SDS011;42360;42.918;12.366;2022-09-29T04:25:25;3.50;;;0.90;;
56457;SDS011;42360;42.918;12.366;2022-09-29T04:27:52;1.80;;;1.65;;
56457;SDS011;42360;42.918;12.366;2022-09-29T04:30:18;5.15;;;0.90;;
56457;SDS011;42360;42.918;12.366;2022-09-29T04:32:43;7.07;;;1.55;;
56457;SDS011;42360;42.918;12.366;2022-09-29T04:35:09;3.22;;;1.40;;
56457;SDS011;42360;42.918;12.366;2022-09-29T04:37:35;3.15;;;0.90;;
56457;SDS011;42360;42.918;12.366;2022-09-29T04:40:00;3.47;;;1.35;;
56457;SDS011;42360;42.918;12.366;2022-09-29T04:42:27;2.05;;;1.60;;
56457;SDS011;42360;42.918;12.366;2022-09-29T04:44:53;6.97;;;1.17;;
56457;SDS011;42360;42.918;12.366;2022-09-29T04:47:18;2.30;;;1.15;;
56457;SDS011;42360;42.918;12.366;2022-09-29T04:49:44;3.92;;;1.23;;
56457;SDS011;42360;42.918;12.366;2022-09-29T04:52:10;4.20;;;1.10;;
56457;SDS011;42360;42.918;12.366;2022-09-29T04:54:36;4.63;;;1.35;;
56457;SDS011;42360;42.918;12.366;2022-09-29T04:57:02;4.55;;;1.45;;
56457;SDS011;42360;42.918;12.366;2022-09-29T04:59:28;2.45;;;1.27;;
56457;SDS011;42360;42.918;12.366;2022-09-29T05:01:54;4.30;;;1.73;;
56457;SDS011;42360;42.918;12.366;2022-09-29T05:04:19;4.75;;;1.10;;
56457;SDS011;42360;42.918;12.366;2022-09-29T05:06:45;5.75;;;1.20;;
56457;SDS011;42360;42.918;12.366;2022-09-29T05:09:11;2.83;;;1.15;;
56457;SDS011;42360;42.918;12.366;2022-09-29T05:11:36;4.55;;;1.38;;
56457;SDS011;42360;42.918;12.366;2022-09-29T05:14:02;5.03;;;1.40;;
56457;SDS011;42360;42.918;12.366;2022-09-29T05:16:28;3.72;;;1.50;;
56457;SDS011;42360;42.918;12.366;2022-09-29T05:18:53;6.03;;;1.95;;
56457;SDS011;42360;42.918;12.366;2022-09-29T05:21:19;4.97;;;0.82;;
56457;SDS011;42360;42.918;12.366;2022-09-29T05:23:45;3.85;;;1.25;;
56457;SDS011;42360;42.918;12.366;2022-09-29T05:26:11;4.07;;;0.95;;
56457;SDS011;42360;42.918;12.366;2022-09-29T05:28:38;4.65;;;1.10;;
56457;SDS011;42360;42.918;12.366;2022-09-29T05:31:08;3.40;;;0.85;;
56457;SDS011;42360;42.918;12.366;2022-09-29T05:33:34;10.45;;;2.33;;
56457;SDS011;42360;42.918;12.366;2022-09-29T05:36:00;4.60;;;1.55;;
56457;SDS011;42360;42.918;12.366;2022-09-29T05:38:29;4.57;;;0.90;;
56457;SDS011;42360;42.918;12.366;2022-09-29T05:40:55;5.97;;;1.40;;
56457;SDS011;42360;42.918;12.366;2022-09-29T05:43:20;4.18;;;0.90;;
56457;SDS011;42360;42.918;12.366;2022-09-29T05:45:46;3.17;;;0.70;;
56457;SDS011;42360;42.918;12.366;2022-09-29T05:48:11;0.52;;;0.38;;
56457;SDS011;42360;42.918;12.366;2022-09-29T05:50:37;1.38;;;0.98;;
56457;SDS011;42360;42.918;12.366;2022-09-29T05:53:09;2.50;;;0.85;;
56457;SDS011;42360;42.918;12.366;2022-09-29T05:55:35;4.93;;;0.93;;
56457;SDS011;42360;42.918;12.366;2022-09-29T05:58:02;3.28;;;1.00;;
56457;SDS011;42360;42.918;12.366;2022-09-29T06:00:28;3.88;;;1.20;;
56457;SDS011;42360;42.918;12.366;2022-09-29T06:02:58;3.25;;;1.00;;
56457;SDS011;42360;42.918;12.366;2022-09-29T06:05:24;4.15;;;0.88;;
56457;SDS011;42360;42.918;12.366;2022-09-29T06:07:51;3.15;;;0.80;;
56457;SDS011;42360;42.918;12.366;2022-09-29T06:10:17;3.08;;;1.10;;
56457;SDS011;42360;42.918;12.366;2022-09-29T06:12:42;1.77;;;0.80;;
56457;SDS011;42360;42.918;12.366;2022-09-29T06:15:09;4.22;;;1.52;;
56457;SDS011;42360;42.918;12.366;2022-09-29T06:17:35;2.97;;;1.08;;
56457;SDS011;42360;42.918;12.366;2022-09-29T06:20:01;3.75;;;0.98;;
56457;SDS011;42360;42.918;12.366;2022-09-29T06:22:27;5.00;;;0.82;;
56457;SDS011;42360;42.918;12.366;2022-09-29T06:24:52;5.15;;;1.65;;
56457;SDS011;42360;42.918;12.366;2022-09-29T06:27:19;3.15;;;1.25;;
56457;SDS011;42360;42.918;12.366;2022-09-29T06:29:44;4.20;;;1.13;;
56457;SDS011;42360;42.918;12.366;2022-09-29T06:32:10;4.68;;;1.60;;
56457;SDS011;42360;42.918;12.366;2022-09-29T06:34:36;1.73;;;1.52;;
56457;SDS011;42360;42.918;12.366;2022-09-29T06:37:21;8.35;;;1.98;;
56457;SDS011;42360;42.918;12.366;2022-09-29T06:39:59;6.80;;;1.98;;
56457;SDS011;42360;42.918;12.366;2022-09-29T06:42:25;4.00;;;1.00;;
56457;SDS011;42360;42.918;12.366;2022-09-29T06:44:51;4.82;;;1.52;;
56457;SDS011;42360;42.918;12.366;2022-09-29T06:47:17;6.88;;;1.35;;
56457;SDS011;42360;42.918;12.366;2022-09-29T06:49:42;2.80;;;1.35;;
56457;SDS011;42360;42.918;12.366;2022-09-29T06:52:08;5.25;;;1.48;;
56457;SDS011;42360;42.918;12.366;2022-09-29T06:54:34;1.48;;;0.90;;
56457;SDS011;42360;42.918;12.366;2022-09-29T06:56:59;4.18;;;1.50;;
56457;SDS011;42360;42.918;12.366;2022-09-29T06:59:25;4.13;;;1.10;;
56457;SDS011;42360;42.918;12.366;2022-09-29T07:01:51;2.97;;;1.10;;
56457;SDS011;42360;42.918;12.366;2022-09-29T07:04:16;6.28;;;0.77;;
56457;SDS011;42360;42.918;12.366;2022-09-29T07:06:43;1.25;;;0.80;;
56457;SDS011;42360;42.918;12.366;2022-09-29T07:09:10;2.58;;;1.42;;
56457;SDS011;42360;42.918;12.366;2022-09-29T07:11:40;2.25;;;0.98;;
56457;SDS011;42360;42.918;12.366;2022-09-29T07:14:11;2.85;;;0.90;;
56457;SDS011;42360;42.918;12.366;2022-09-29T07:16:39;3.75;;;1.50;;
56457;SDS011;42360;42.918;12.366;2022-09-29T07:19:05;2.15;;;0.98;;
56457;SDS011;42360;42.918;12.366;2022-09-29T07:21:31;1.33;;;0.82;;
56457;SDS011;42360;42.918;12.366;2022-09-29T07:23:56;1.85;;;1.13;;
56457;SDS011;42360;42.918;12.366;2022-09-29T07:26:22;2.80;;;0.80;;
56457;SDS011;42360;42.918;12.366;2022-09-29T07:28:48;11.25;;;1.60;;
56457;SDS011;42360;42.918;12.366;2022-09-29T07:31:17;9.20;;;1.25;;
56457;SDS011;42360;42.918;12.366;2022-09-29T07:33:44;1.07;;;0.80;;
56457;SDS011;42360;42.918;12.366;2022-09-29T07:36:14;2.80;;;0.98;;
56457;SDS011;42360;42.918;12.366;2022-09-29T07:38:44;1.73;;;0.93;;
56457;SDS011;42360;42.918;12.366;2022-09-29T07:41:10;4.53;;;1.48;;
56457;SDS011;42360;42.918;12.366;2022-09-29T07:43:36;1.27;;;0.85;;
56457;SDS011;42360;42.918;12.366;2022-09-29T07:46:02;1.48;;;0.95;;
56457;SDS011;42360;42.918;12.366;2022-09-29T07:48:29;1.98;;;0.70;;
56457;SDS011;42360;42.918;12.366;2022-09-29T07:51:05;2.90;;;1.15;;
56457;SDS011;42360;42.918;12.366;2022-09-29T07:53:41;3.50;;;1.42;;
56457;SDS011;42360;42.918;12.366;2022-09-29T07:56:09;3.08;;;1.30;;
56457;SDS011;42360;42.918;12.366;2022-09-29T07:58:39;2.70;;;0.80;;
56457;SDS011;42360;42.918;12.366;2022-09-29T08:01:06;4.30;;;1.75;;
56457;SDS011;42360;42.918;12.366;2022-09-29T08:03:35;5.43;;;1.15;;
56457;SDS011;42360;42.918;12.366;2022-09-29T08:06:01;3.50;;;1.05;;
56457;SDS011;42360;42.918;12.366;2022-09-29T08:08:28;0.70;;;0.40;;
56457;SDS011;42360;42.918;12.366;2022-09-29T08:11:26;2.05;;;0.90;;
56457;SDS011;42360;42.918;12.366;2022-09-29T08:13:46;3.35;;;1.42;;
56457;SDS011;42360;42.918;12.366;2022-09-29T08:16:12;1.50;;;1.27;;
56457;SDS011;42360;42.918;12.366;2022-09-29T08:18:39;1.35;;;1.10;;
56457;SDS011;42360;42.918;12.366;2022-09-29T08:21:05;2.70;;;0.85;;
56457;SDS011;42360;42.918;12.366;2022-09-29T08:23:35;2.15;;;0.65;;
56457;SDS011;42360;42.918;12.366;2022-09-29T08:26:02;1.35;;;0.60;;
56457;SDS011;42360;42.918;12.366;2022-09-29T08:28:30;7.53;;;0.93;;
56457;SDS011;42360;42.918;12.366;2022-09-29T08:30:56;2.15;;;1.10;;
56457;SDS011;42360;42.918;12.366;2022-09-29T08:33:23;4.43;;;1.58;;
56457;SDS011;42360;42.918;12.366;2022-09-29T08:35:55;2.95;;;1.30;;
56457;SDS011;42360;42.918;12.366;2022-09-29T08:38:22;1.75;;;0.77;;
56457;SDS011;42360;42.918;12.366;2022-09-29T08:40:49;1.60;;;1.13;;
56457;SDS011;42360;42.918;12.366;2022-09-29T08:43:19;3.95;;;1.55;;
56457;SDS011;42360;42.918;12.366;2022-09-29T08:45:48;6.03;;;1.33;;
56457;SDS011;42360;42.918;12.366;2022-09-29T08:48:20;1.90;;;1.02;;
56457;SDS011;42360;42.918;12.366;2022-09-29T08:51:00;3.50;;;0.73;;
56457;SDS011;42360;42.918;12.366;2022-09-29T08:53:33;1.63;;;0.55;;
56457;SDS011;42360;42.918;12.366;2022-09-29T08:56:04;0.43;;;0.43;;
56457;SDS011;42360;42.918;12.366;2022-09-29T08:58:32;2.92;;;1.10;;
56457;SDS011;42360;42.918;12.366;2022-09-29T09:06:40;0.43;;;0.43;;
56457;SDS011;42360;42.918;12.366;2022-09-29T09:20:17;1.15;;;0.90;;
56457;SDS011;42360;42.918;12.366;2022-09-29T09:23:27;1.80;;;0.70;;
56457;SDS011;42360;42.918;12.366;2022-09-29T09:25:48;5.65;;;1.52;;
56457;SDS011;42360;42.918;12.366;2022-09-29T09:28:17;1.85;;;0.95;;
56457;SDS011;42360;42.918;12.366;2022-09-29T09:30:48;6.43;;;0.93;;
56457;SDS011;42360;42.918;12.366;2022-09-29T09:33:26;2.78;;;0.80;;
56457;SDS011;42360;42.918;12.366;2022-09-29T09:36:38;1.98;;;0.43;;
56457;SDS011;42360;42.918;12.366;2022-09-29T09:42:31;1.88;;;0.73;;
56457;SDS011;42360;42.918;12.366;2022-09-29T09:45:16;4.10;;;1.55;;
56457;SDS011;42360;42.918;12.366;2022-09-29T09:47:56;3.22;;;0.60;;
56457;SDS011;42360;42.918;12.366;2022-09-29T09:50:26;3.60;;;0.70;;
56457;SDS011;42360;42.918;12.366;2022-09-29T09:52:55;2.72;;;0.40;;
56457;SDS011;42360;42.918;12.366;2022-09-29T09:55:24;0.40;;;0.40;;
56457;SDS011;42360;42.918;12.366;2022-09-29T09:58:08;1.85;;;0.50;;
56457;SDS011;42360;42.918;12.366;2022-09-29T10:01:02;0.85;;;0.65;;
56457;SDS011;42360;42.918;12.366;2022-09-29T10:03:31;0.80;;;0.70;;
56457;SDS011;42360;42.918;12.366;2022-09-29T10:05:57;1.00;;;0.65;;
56457;SDS011;42360;42.918;12.366;2022-09-29T10:10:50;2.75;;;0.70;;
56457;SDS011;42360;42.918;12.366;2022-09-29T10:13:16;3.08;;;0.65;;
56457;SDS011;42360;42.918;12.366;2022-09-29T10:15:43;0.35;;;0.30;;
56457;SDS011;42360;42.918;12.366;2022-09-29T10:18:28;0.50;;;0.50;;
56457;SDS011;42360;42.918;12.366;2022-09-29T10:21:08;3.70;;;0.50;;
56457;SDS011;42360;42.918;12.366;2022-09-29T10:23:49;1.42;;;0.70;;
56457;SDS011;42360;42.918;12.366;2022-09-29T10:26:20;0.75;;;0.43;;
56457;SDS011;42360;42.918;12.366;2022-09-29T10:28:53;2.20;;;0.60;;
56457;SDS011;42360;42.918;12.366;2022-09-29T10:33:58;1.35;;;0.90;;
56457;SDS011;42360;42.918;12.366;2022-09-29T10:36:28;0.77;;;0.47;;
56457;SDS011;42360;42.918;12.366;2022-09-29T10:38:58;0.60;;;0.45;;
56457;SDS011;42360;42.918;12.366;2022-09-29T10:41:24;1.45;;;0.50;;
56457;SDS011;42360;42.918;12.366;2022-09-29T10:43:50;1.40;;;0.50;;
56457;SDS011;42360;42.918;12.366;2022-09-29T10:49:08;2.85;;;0.65;;
56457;SDS011;42360;42.918;12.366;2022-09-29T10:51:39;1.90;;;0.80;;
56457;SDS011;42360;42.918;12.366;2022-09-29T10:54:07;0.75;;;0.50;;
56457;SDS011;42360;42.918;12.366;2022-09-29T10:56:34;1.80;;;0.63;;
56457;SDS011;42360;42.918;12.366;2022-09-29T10:59:00;1.08;;;0.40;;
56457;SDS011;42360;42.918;12.366;2022-09-29T11:01:28;13.82;;;1.00;;
56457;SDS011;42360;42.918;12.366;2022-09-29T11:03:56;1.15;;;0.40;;
56457;SDS011;42360;42.918;12.366;2022-09-29T11:06:36;1.52;;;0.50;;
56457;SDS011;42360;42.918;12.366;2022-09-29T11:14:00;1.85;;;1.05;;
56457;SDS011;42360;42.918;12.366;2022-09-29T11:16:30;2.83;;;0.70;;
56457;SDS011;42360;42.918;12.366;2022-09-29T11:22:21;0.68;;;0.68;;
56457;SDS011;42360;42.918;12.366;2022-09-29T11:27:21;0.40;;;0.40;;
56457;SDS011;42360;42.918;12.366;2022-09-29T11:32:47;1.08;;;0.90;;
56457;SDS011;42360;42.918;12.366;2022-09-29T11:46:43;1.10;;;1.00;;
56457;SDS011;42360;42.918;12.366;2022-09-29T11:52:23;3.30;;;0.75;;
56457;SDS011;42360;42.918;12.366;2022-09-29T11:57:58;0.80;;;0.70;;
56457;SDS011;42360;42.918;12.366;2022-09-29T12:08:58;0.45;;;0.45;;
56457;SDS011;42360;42.918;12.366;2022-09-29T12:11:40;1.05;;;0.75;;
56457;SDS011;42360;42.918;12.366;2022-09-29T12:28:11;3.42;;;0.90;;
56457;SDS011;42360;42.918;12.366;2022-09-29T12:46:32;0.82;;;0.35;;
56457;SDS011;42360;42.918;12.366;2022-09-29T12:49:04;1.88;;;0.70;;
56457;SDS011;42360;42.918;12.366;2022-09-29T12:51:49;0.77;;;0.40;;
56457;SDS011;42360;42.918;12.366;2022-09-29T12:54:32;1.27;;;1.17;;
56457;SDS011;42360;42.918;12.366;2022-09-29T12:57:01;0.95;;;0.50;;
56457;SDS011;42360;42.918;12.366;2022-09-29T12:59:34;2.05;;;0.40;;
56457;SDS011;42360;42.918;12.366;2022-09-29T13:13:59;0.80;;;0.60;;
56457;SDS011;42360;42.918;12.366;2022-09-29T13:22:15;0.65;;;0.50;;
56457;SDS011;42360;42.918;12.366;2022-09-29T13:25:16;1.40;;;0.60;;
56457;SDS011;42360;42.918;12.366;2022-09-29T13:27:48;1.27;;;0.40;;
56457;SDS011;42360;42.918;12.366;2022-09-29T13:30:20;1.65;;;0.50;;
56457;SDS011;42360;42.918;12.366;2022-09-29T13:32:47;1.77;;;0.60;;
56457;SDS011;42360;42.918;12.366;2022-09-29T13:35:38;2.17;;;0.70;;
56457;SDS011;42360;42.918;12.366;2022-09-29T13:38:10;1.45;;;0.73;;
56457;SDS011;42360;42.918;12.366;2022-09-29T13:40:40;0.55;;;0.55;;
56457;SDS011;42360;42.918;12.366;2022-09-29T13:44:00;2.70;;;0.73;;
56457;SDS011;42360;42.918;12.366;2022-09-29T13:58:25;0.45;;;0.45;;
56457;SDS011;42360;42.918;12.366;2022-09-29T14:01:05;0.40;;;0.40;;
56457;SDS011;42360;42.918;12.366;2022-09-29T14:03:33;1.00;;;0.85;;
56457;SDS011;42360;42.918;12.366;2022-09-29T14:06:13;0.65;;;0.65;;
56457;SDS011;42360;42.918;12.366;2022-09-29T14:11:36;2.90;;;0.93;;
56457;SDS011;42360;42.918;12.366;2022-09-29T14:14:04;1.17;;;0.60;;
56457;SDS011;42360;42.918;12.366;2022-09-29T14:16:47;2.03;;;0.70;;
56457;SDS011;42360;42.918;12.366;2022-09-29T14:19:23;2.13;;;0.85;;
56457;SDS011;42360;42.918;12.366;2022-09-29T14:24:54;2.15;;;0.50;;
56457;SDS011;42360;42.918;12.366;2022-09-29T14:30:19;1.42;;;0.63;;
56457;SDS011;42360;42.918;12.366;2022-09-29T14:33:10;2.15;;;0.60;;
56457;SDS011;42360;42.918;12.366;2022-09-29T14:38:26;0.50;;;0.40;;
56457;SDS011;42360;42.918;12.366;2022-09-29T14:43:40;2.05;;;0.50;;
56457;SDS011;42360;42.918;12.366;2022-09-29T14:55:13;3.22;;;0.65;;
56457;SDS011;42360;42.918;12.366;2022-09-29T15:03:46;1.90;;;0.77;;
56457;SDS011;42360;42.918;12.366;2022-09-29T15:08:40;0.77;;;0.38;;
56457;SDS011;42360;42.918;12.366;2022-09-29T15:19:43;0.57;;;0.50;;
56457;SDS011;42360;42.918;12.366;2022-09-29T15:25:21;0.63;;;0.35;;
56457;SDS011;42360;42.918;12.366;2022-09-29T15:27:59;0.40;;;0.40;;
56457;SDS011;42360;42.918;12.366;2022-09-29T15:30:28;2.10;;;0.40;;
56457;SDS011;42360;42.918;12.366;2022-09-29T15:33:02;0.40;;;0.40;;
56457;SDS011;42360;42.918;12.366;2022-09-29T15:35:55;1.13;;;0.40;;
56457;SDS011;42360;42.918;12.366;2022-09-29T15:40:53;0.40;;;0.40;;
56457;SDS011;42360;42.918;12.366;2022-09-29T15:43:21;1.25;;;0.55;;
56457;SDS011;42360;42.918;12.366;2022-09-29T15:45:56;1.33;;;0.35;;
56457;SDS011;42360;42.918;12.366;2022-09-29T15:48:29;0.50;;;0.30;;
56457;SDS011;42360;42.918;12.366;2022-09-29T15:50:55;2.10;;;0.40;;
56457;SDS011;42360;42.918;12.366;2022-09-29T15:53:22;0.50;;;0.45;;
56457;SDS011;42360;42.918;12.366;2022-09-29T15:55:50;0.50;;;0.40;;
56457;SDS011;42360;42.918;12.366;2022-09-29T16:01:06;0.20;;;0.20;;
56457;SDS011;42360;42.918;12.366;2022-09-29T16:06:28;1.23;;;0.43;;
56457;SDS011;42360;42.918;12.366;2022-09-29T16:09:00;0.30;;;0.30;;
56457;SDS011;42360;42.918;12.366;2022-09-29T16:11:31;1.05;;;0.90;;
56457;SDS011;42360;42.918;12.366;2022-09-29T16:14:07;0.40;;;0.30;;
56457;SDS011;42360;42.918;12.366;2022-09-29T16:16:35;0.70;;;0.70;;
56457;SDS011;42360;42.918;12.366;2022-09-29T16:19:21;0.47;;;0.47;;
56457;SDS011;42360;42.918;12.366;2022-09-29T16:21:51;0.40;;;0.30;;
56457;SDS011;42360;42.918;12.366;2022-09-29T16:24:19;0.43;;;0.40;;
56457;SDS011;42360;42.918;12.366;2022-09-29T16:26:49;0.32;;;0.32;;
56457;SDS011;42360;42.918;12.366;2022-09-29T16:29:32;0.30;;;0.30;;
56457;SDS011;42360;42.918;12.366;2022-09-29T16:32:00;0.82;;;0.50;;
56457;SDS011;42360;42.918;12.366;2022-09-29T16:38:47;0.43;;;0.32;;
56457;SDS011;42360;42.918;12.366;2022-09-29T16:44:03;0.45;;;0.45;;
56457;SDS011;42360;42.918;12.366;2022-09-29T16:46:47;0.75;;;0.40;;
56457;SDS011;42360;42.918;12.366;2022-09-29T16:49:17;0.40;;;0.40;;
56457;SDS011;42360;42.918;12.366;2022-09-29T16:51:50;0.57;;;0.40;;
56457;SDS011;42360;42.918;12.366;2022-09-29T16:54:27;1.65;;;0.70;;
56457;SDS011;42360;42.918;12.366;2022-09-29T16:57:08;0.50;;;0.45;;
56457;SDS011;42360;42.918;12.366;2022-09-29T16:59:41;2.08;;;0.80;;
56457;SDS011;42360;42.918;12.366;2022-09-29T17:02:10;0.93;;;0.70;;
56457;SDS011;42360;42.918;12.366;2022-09-29T17:04:36;1.02;;;0.80;;
56457;SDS011;42360;42.918;12.366;2022-09-29T17:07:02;4.53;;;2.00;;
56457;SDS011;42360;42.918;12.366;2022-09-29T17:09:28;0.77;;;0.50;;
56457;SDS011;42360;42.918;12.366;2022-09-29T17:11:54;0.57;;;0.57;;
56457;SDS011;42360;42.918;12.366;2022-09-29T17:14:19;0.65;;;0.50;;
56457;SDS011;42360;42.918;12.366;2022-09-29T17:16:48;1.15;;;0.60;;
56457;SDS011;42360;42.918;12.366;2022-09-29T17:19:16;0.68;;;0.63;;
56457;SDS011;42360;42.918;12.366;2022-09-29T17:21:42;0.60;;;0.60;;
56457;SDS011;42360;42.918;12.366;2022-09-29T17:24:07;2.17;;;0.63;;
56457;SDS011;42360;42.918;12.366;2022-09-29T17:26:37;0.73;;;0.73;;
56457;SDS011;42360;42.918;12.366;2022-09-29T17:29:23;1.10;;;0.40;;
56457;SDS011;42360;42.918;12.366;2022-09-29T17:31:49;0.30;;;0.30;;
56457;SDS011;42360;42.918;12.366;2022-09-29T17:34:15;0.50;;;0.50;;
56457;SDS011;42360;42.918;12.366;2022-09-29T17:36:41;1.85;;;0.85;;
56457;SDS011;42360;42.918;12.366;2022-09-29T17:39:07;1.67;;;0.75;;
56457;SDS011;42360;42.918;12.366;2022-09-29T17:41:33;1.55;;;0.70;;
56457;SDS011;42360;42.918;12.366;2022-09-29T17:43:59;0.75;;;0.75;;
56457;SDS011;42360;42.918;12.366;2022-09-29T17:46:28;0.70;;;0.70;;
56457;SDS011;42360;42.918;12.366;2022-09-29T17:48:54;0.95;;;0.57;;
56457;SDS011;42360;42.918;12.366;2022-09-29T17:51:19;1.85;;;0.90;;
56457;SDS011;42360;42.918;12.366;2022-09-29T17:53:45;0.50;;;0.50;;
56457;SDS011;42360;42.918;12.366;2022-09-29T17:56:21;0.60;;;0.60;;
56457;SDS011;42360;42.918;12.366;2022-09-29T17:58:50;1.50;;;1.17;;
56457;SDS011;42360;42.918;12.366;2022-09-29T18:01:18;1.42;;;0.73;;
56457;SDS011;42360;42.918;12.366;2022-09-29T18:03:45;0.98;;;0.82;;
56457;SDS011;42360;42.918;12.366;2022-09-29T18:06:18;1.35;;;0.80;;
56457;SDS011;42360;42.918;12.366;2022-09-29T18:08:46;0.90;;;0.80;;
56457;SDS011;42360;42.918;12.366;2022-09-29T18:11:15;1.80;;;0.52;;
56457;SDS011;42360;42.918;12.366;2022-09-29T18:13:41;1.17;;;0.63;;
56457;SDS011;42360;42.918;12.366;2022-09-29T18:16:08;1.20;;;0.82;;
56457;SDS011;42360;42.918;12.366;2022-09-29T18:18:36;1.83;;;0.70;;
56457;SDS011;42360;42.918;12.366;2022-09-29T18:21:02;0.68;;;0.60;;
56457;SDS011;42360;42.918;12.366;2022-09-29T18:23:28;1.10;;;0.75;;
56457;SDS011;42360;42.918;12.366;2022-09-29T18:25:54;2.78;;;0.93;;
56457;SDS011;42360;42.918;12.366;2022-09-29T18:28:20;1.95;;;0.85;;
56457;SDS011;42360;42.918;12.366;2022-09-29T18:30:46;0.85;;;0.65;;
56457;SDS011;42360;42.918;12.366;2022-09-29T18:33:15;0.98;;;0.77;;